Terminal Aerodrome Forecast
Issued by NWS

Home | Current Version | Previous Version | Text Only | Print | Product List | Glossary On
Versions: 1 2 3 4 5 6 7 8 9 10 11 12 13
000
FTUS42 KGSP 050535
TAFAND
TAF
KAND 050535Z 0506/0606 06005KT P6SM BKN250
      TEMPO 0510/0513 5SM BR
     FM051500 07010KT P6SM BKN035 PROB30 0515/0521 4SM TSRA BKN025CB
     FM052300 06005KT P6SM BKN050 PROB30 0523/0602 4SM TSRA BKN040CB
     FM060200 06006KT P6SM BKN050=

USA.gov is the U.S. government's official web portal to all federal, state and local government web resources and services.